createdAt,value
2019-06-08T07:52:48.020Z,53.47
2019-06-08T07:55:19.970Z,54.73
2019-06-08T07:57:52.160Z,53.20
2019-06-08T08:00:22.980Z,53.10
2019-06-08T08:02:54.354Z,53.33
2019-06-08T08:05:25.168Z,53.03
2019-06-08T08:07:56.899Z,53.03
2019-06-08T08:10:27.895Z,50.49
2019-06-08T08:12:59.787Z,50.49
2019-06-08T08:15:30.583Z,51.75
2019-06-08T08:18:01.348Z,52.47
2019-06-08T08:20:32.128Z,52.28
2019-06-08T08:23:06.031Z,52.87
2019-06-08T08:25:37.903Z,52.19
2019-06-08T08:28:08.719Z,52.19
2019-06-08T08:30:39.510Z,51.42
2019-06-08T08:33:10.288Z,50.35
2019-06-08T08:35:41.060Z,51.24
2019-06-08T08:38:12.151Z,49.87
2019-06-08T08:40:42.949Z,49.36
2019-06-08T08:43:13.723Z,49.36
2019-06-08T08:45:44.590Z,49.07
2019-06-08T08:48:25.496Z,47.75
2019-06-08T08:50:48.425Z,48.60
2019-06-08T08:53:19.356Z,48.08
2019-06-08T08:55:50.902Z,48.08
2019-06-08T08:58:21.724Z,48.30
2019-06-08T09:00:54.109Z,47.42
2019-06-08T09:03:33.099Z,48.45
2019-06-08T09:06:01.381Z,45.73
2019-06-08T09:08:30.617Z,45.85
2019-06-08T09:11:03.552Z,45.85
2019-06-08T09:13:34.088Z,46.16
2019-06-08T09:16:07.767Z,46.16
2019-06-08T09:18:37.696Z,42.42
2019-06-08T09:21:08.672Z,44.14
2019-06-08T09:23:39.405Z,44.14
2019-06-08T09:26:13.088Z,44.27
2019-06-08T09:28:42.871Z,44.40
2019-06-08T09:31:13.633Z,43.27
2019-06-08T09:33:53.281Z,44.76
2019-06-08T09:36:17.723Z,41.60
2019-06-08T09:38:48.683Z,42.08
2019-06-08T09:41:19.437Z,41.24
2019-06-08T09:43:50.249Z,42.55
2019-06-08T09:46:21.040Z,40.25
2019-06-08T09:48:53.970Z,39.83
2019-06-08T09:51:24.488Z,41.84
2019-06-08T09:53:56.129Z,40.61
2019-06-08T09:56:28.427Z,41.68
2019-06-08T09:59:03.554Z,40.34
2019-06-08T10:01:32.077Z,41.11
2019-06-08T10:04:05.752Z,41.44
2019-06-08T10:06:37.777Z,41.57
2019-06-08T10:09:09.107Z,40.71
2019-06-08T10:11:40.020Z,41.66
2019-06-08T10:14:12.471Z,40.78
2019-06-08T10:16:43.473Z,40.12
2019-06-08T10:19:14.267Z,42.13
2019-06-08T10:21:45.041Z,40.26
2019-06-08T10:24:15.923Z,41.93
2019-06-08T10:26:47.763Z,42.89
2019-06-08T10:29:18.826Z,41.11
2019-06-08T10:31:49.608Z,41.17
2019-06-08T10:34:20.387Z,41.72
2019-06-08T10:36:51.152Z,40.20
2019-06-08T10:39:21.926Z,40.68
2019-06-08T10:41:52.712Z,39.67
2019-06-08T10:44:23.472Z,38.66
2019-06-08T10:46:54.256Z,40.55
2019-06-08T10:49:25.035Z,38.61
2019-06-08T10:51:58.996Z,39.33
2019-06-08T10:54:28.616Z,39.84
2019-06-08T10:57:01.837Z,39.51
2019-06-08T10:59:32.056Z,38.40
2019-06-08T11:02:06.208Z,38.36
2019-06-08T11:04:35.515Z,38.79
2019-06-08T11:07:13.059Z,36.01
2019-06-08T11:09:38.961Z,38.03
2019-06-08T11:12:14.579Z,36.94
2019-06-08T11:14:42.524Z,37.88
2019-06-08T11:17:13.289Z,36.29
2019-06-08T11:19:44.074Z,36.51
2019-06-08T11:22:15.434Z,38.30
2019-06-08T11:24:48.534Z,38.30
2019-06-08T11:27:19.534Z,38.49
2019-06-08T11:29:50.337Z,36.93
2019-06-08T11:32:21.180Z,36.89
2019-06-08T11:34:51.950Z,36.51
2019-06-08T11:37:22.742Z,35.95
2019-06-08T11:39:53.496Z,35.27
2019-06-08T11:42:26.244Z,37.02
2019-06-08T11:44:58.685Z,37.66
2019-06-08T11:47:31.025Z,35.58
2019-06-08T11:50:04.760Z,34.63
2019-06-08T11:52:38.253Z,35.38
2019-06-08T11:55:11.212Z,35.23
2019-06-08T11:57:41.936Z,37.79
2019-06-08T12:00:33.093Z,34.81
2019-06-08T12:03:03.893Z,35.59
2019-06-08T12:05:34.671Z,32.45
2019-06-08T12:08:06.372Z,34.76
2019-06-08T12:10:38.215Z,33.38
2019-06-08T12:13:12.812Z,31.67
2019-06-08T12:15:42.993Z,34.34
2019-06-08T12:18:14.171Z,35.35
2019-06-08T12:20:45.035Z,36.23
2019-06-08T12:23:15.800Z,35.71
2019-06-08T12:25:46.576Z,36.03
2019-06-08T12:28:17.891Z,30.37
2019-06-08T12:30:48.838Z,32.69
2019-06-08T12:33:22.740Z,33.46
2019-06-08T12:35:52.562Z,33.39
2019-06-08T12:38:23.527Z,31.69
2019-06-08T12:40:54.302Z,32.76
2019-06-08T12:43:25.069Z,35.74
2019-06-08T12:45:57.903Z,31.80
2019-06-08T12:48:28.772Z,30.34
2019-06-08T12:50:59.594Z,32.49
2019-06-08T12:53:30.370Z,31.79
2019-06-08T12:56:01.149Z,31.14
2019-06-08T12:58:31.914Z,30.30
2019-06-08T13:01:02.797Z,31.30
2019-06-08T13:03:33.575Z,31.19
2019-06-08T13:06:04.342Z,30.06
2019-06-08T13:08:35.311Z,29.12
2019-06-08T13:11:09.049Z,28.14
2019-06-08T13:13:38.754Z,30.08
2019-06-08T13:16:10.531Z,30.21
2019-06-08T13:18:41.361Z,29.79
2019-06-08T13:21:21.854Z,29.47
2019-06-08T13:23:44.824Z,28.81
2019-06-08T13:26:21.566Z,29.23
2019-06-08T13:28:48.283Z,30.33
2019-06-08T13:31:22.596Z,31.06
2019-06-08T13:33:51.742Z,29.35
2019-06-08T13:36:26.408Z,29.94
2019-06-08T13:38:55.518Z,28.59
2019-06-08T13:41:29.557Z,28.50
2019-06-08T13:43:58.985Z,29.15
2019-06-08T13:46:29.759Z,29.82
2019-06-08T13:49:00.540Z,27.03
2019-06-08T13:51:31.315Z,28.01
2019-06-08T13:54:02.404Z,27.25
2019-06-08T13:56:33.193Z,27.84
2019-06-08T13:59:03.958Z,27.99
2019-06-08T14:01:34.748Z,26.08
2019-06-08T14:04:05.540Z,27.67
2019-06-08T14:06:36.324Z,27.45
2019-06-08T14:09:08.285Z,27.59
2019-06-08T14:11:39.314Z,26.95
2019-06-08T14:14:10.150Z,26.67
2019-06-08T14:16:40.928Z,25.20
2019-06-08T14:19:11.701Z,26.49
2019-06-08T14:21:42.484Z,26.56
2019-06-08T14:24:13.293Z,24.30
2019-06-08T14:26:44.152Z,24.43
2019-06-08T14:29:14.917Z,24.29
2019-06-08T14:31:45.700Z,25.16
2019-06-08T14:34:18.646Z,25.62
2019-06-08T14:36:49.143Z,23.84
2019-06-08T14:39:20.597Z,22.47
2019-06-08T14:41:52.332Z,23.12
2019-06-08T14:44:24.070Z,23.67
2019-06-08T14:46:54.976Z,23.79
2019-06-08T14:49:30.709Z,24.56
2019-06-08T14:51:58.455Z,23.94
2019-06-08T14:54:34.787Z,22.97
2019-06-08T14:57:01.932Z,22.80
2019-06-08T14:59:32.703Z,22.47
2019-06-08T15:02:03.494Z,23.06
2019-06-08T15:04:36.921Z,23.35
2019-06-08T15:07:09.461Z,23.46
2019-06-08T15:09:39.624Z,22.47
2019-06-08T15:12:10.398Z,23.25
2019-06-08T15:14:41.177Z,23.92
2019-06-08T15:17:11.972Z,23.37
2019-06-08T15:19:42.759Z,22.30
2019-06-08T15:22:13.543Z,23.66
2019-06-08T15:24:44.310Z,24.18
2019-06-08T15:27:15.097Z,24.71
2019-06-08T15:29:47.574Z,25.73
2019-06-08T15:32:18.572Z,27.31
2019-06-08T15:34:50.945Z,26.25
2019-06-08T15:37:23.103Z,26.09
2019-06-08T15:39:54.001Z,26.40
2019-06-08T15:42:24.781Z,26.83
2019-06-08T15:44:59.417Z,28.28
2019-06-08T15:47:28.441Z,26.68
2019-06-08T15:49:59.222Z,26.97
2019-06-08T15:52:32.543Z,28.05
2019-06-08T15:55:03.893Z,26.44
2019-06-08T15:57:38.107Z,26.21
2019-06-08T16:00:10.201Z,27.53
2019-06-08T16:02:40.439Z,26.82
2019-06-08T16:05:11.348Z,27.26
2019-06-08T16:07:42.087Z,27.78
2019-06-08T16:10:13.059Z,27.30
2019-06-08T16:12:43.838Z,28.38
2019-06-08T16:15:14.723Z,28.72
2019-06-08T16:17:45.526Z,28.91
2019-06-08T16:20:16.293Z,29.65
2019-06-08T16:22:47.142Z,30.63
2019-06-08T16:25:17.905Z,28.67
2019-06-08T16:27:48.683Z,29.38
2019-06-08T16:30:19.555Z,27.47
2019-06-08T16:32:50.346Z,26.95
2019-06-08T16:35:21.109Z,27.21
2019-06-08T16:37:51.888Z,26.46
2019-06-08T16:40:22.650Z,27.46
2019-06-08T16:42:53.670Z,26.90
2019-06-08T16:45:24.527Z,28.30
2019-06-08T16:47:55.321Z,27.49
2019-06-08T16:50:26.086Z,29.16
2019-06-08T16:52:56.895Z,28.60
2019-06-08T16:55:27.749Z,28.44
2019-06-08T16:57:58.551Z,29.28
2019-06-08T17:00:31.260Z,29.25
2019-06-08T17:03:02.630Z,29.77
2019-06-08T17:05:33.420Z,30.86
2019-06-08T17:08:04.212Z,29.89
2019-06-08T17:10:34.987Z,30.13
2019-06-08T17:13:05.783Z,30.40
2019-06-08T17:15:36.553Z,30.23
2019-06-08T17:18:07.359Z,30.94
2019-06-08T17:20:38.441Z,29.48
2019-06-08T17:23:09.387Z,29.23
2019-06-08T17:25:40.894Z,30.59
2019-06-08T17:28:11.916Z,29.75
2019-06-08T17:30:42.681Z,28.86
2019-06-08T17:33:13.475Z,29.42
2019-06-08T17:35:45.255Z,28.67
2019-06-08T17:38:16.144Z,28.94
2019-06-08T17:40:46.920Z,29.71
2019-06-08T17:43:17.680Z,30.30
2019-06-08T17:45:48.459Z,30.03
2019-06-08T17:48:19.225Z,29.75
2019-06-08T17:50:50.001Z,30.31
2019-06-08T17:53:20.921Z,28.58
2019-06-08T17:55:51.704Z,29.92
2019-06-08T17:58:22.480Z,30.96
2019-06-08T18:00:53.257Z,29.82
2019-06-08T18:03:24.040Z,29.62
2019-06-08T18:05:54.821Z,30.34
2019-06-08T18:08:28.086Z,30.98
2019-06-08T18:10:58.277Z,31.50
2019-06-08T18:13:29.092Z,30.17
2019-06-08T18:15:59.862Z,29.94
2019-06-08T18:18:30.667Z,30.46
2019-06-08T18:21:01.439Z,36.19
2019-06-08T18:23:32.303Z,33.13
2019-06-08T18:26:03.089Z,31.71
2019-06-08T18:28:34.481Z,32.90
2019-06-08T18:31:07.384Z,33.09
2019-06-08T18:33:39.892Z,32.57
2019-06-08T18:36:10.673Z,35.06
2019-06-08T18:38:42.960Z,34.70
2019-06-08T18:41:14.129Z,36.44
2019-06-08T18:46:18.034Z,38.67
2019-06-08T18:48:49.652Z,39.37
2019-06-08T18:51:20.496Z,40.39
2019-06-08T18:54:07.480Z,40.50
2019-06-08T18:56:23.966Z,40.74
2019-06-08T18:58:54.732Z,41.53
2019-06-08T19:01:27.560Z,41.24
2019-06-08T19:03:58.217Z,42.37
2019-06-08T19:06:29.191Z,42.93
2019-06-08T19:08:59.952Z,43.23
2019-06-08T19:11:30.725Z,42.78
2019-06-08T19:14:03.055Z,43.48
2019-06-08T19:16:34.005Z,43.54
2019-06-08T19:19:07.294Z,44.65
2019-06-08T19:21:38.903Z,43.77
2019-06-08T19:24:10.065Z,44.39
2019-06-08T19:26:42.876Z,44.13
2019-06-08T19:29:13.532Z,43.74
2019-06-08T19:31:45.796Z,43.71
2019-06-08T19:34:18.197Z,43.62
2019-06-08T19:36:54.013Z,41.46
2019-06-08T19:39:21.839Z,43.67
2019-06-08T19:41:52.644Z,44.90
2019-06-08T19:44:23.407Z,46.38
2019-06-08T19:46:54.498Z,46.12
2019-06-08T19:49:28.005Z,45.93
2019-06-08T19:51:58.229Z,46.27
2019-06-08T19:54:29.055Z,46.55
2019-06-08T19:56:59.832Z,46.63
2019-06-08T19:59:30.616Z,46.21
2019-06-08T20:02:01.387Z,46.11
2019-06-08T20:04:32.156Z,46.83
2019-06-08T20:07:02.952Z,47.22
2019-06-08T20:09:33.720Z,47.22
2019-06-08T20:12:04.808Z,47.58
2019-06-08T20:14:37.431Z,47.32
2019-06-08T20:17:08.289Z,47.32
2019-06-08T20:19:39.075Z,48.30
2019-06-08T20:22:10.043Z,48.18
2019-06-08T20:24:42.421Z,48.65
2019-06-08T20:27:13.320Z,48.75
2019-06-08T20:29:45.114Z,49.04
2019-06-08T20:32:18.021Z,49.66
2019-06-08T20:34:49.697Z,50.63
2019-06-08T20:37:21.720Z,50.63
2019-06-08T20:40:02.998Z,50.83
2019-06-08T20:42:25.250Z,51.80
2019-06-08T20:44:57.743Z,51.80
2019-06-08T20:47:28.625Z,52.12
2019-06-08T20:49:59.384Z,52.62
2019-06-08T20:52:30.180Z,52.61
2019-06-08T20:55:00.955Z,51.80
2019-06-08T20:57:31.731Z,51.33
2019-06-08T21:00:09.190Z,51.22
2019-06-08T21:02:39.308Z,52.23
2019-06-08T21:05:10.573Z,52.11
2019-06-08T21:07:41.369Z,52.83
2019-06-08T21:10:12.233Z,52.83
2019-06-08T21:12:45.162Z,53.06
2019-06-08T21:15:17.735Z,54.13
2019-06-08T21:17:50.694Z,54.13
2019-06-08T21:20:21.163Z,54.66
2019-06-08T21:22:53.905Z,54.96
2019-06-08T21:25:24.602Z,54.51
2019-06-08T21:27:58.201Z,54.72
2019-06-08T21:30:28.597Z,55.43
2019-06-08T21:33:00.907Z,55.67
2019-06-08T21:35:31.724Z,56.33
2019-06-08T21:38:02.492Z,57.05
2019-06-08T21:40:33.256Z,56.66
2019-06-08T21:43:04.027Z,57.05
2019-06-08T21:45:34.987Z,57.40
2019-06-08T21:48:07.512Z,57.65
2019-06-08T21:50:38.442Z,58.11
2019-06-08T21:53:09.214Z,58.82
2019-06-08T21:55:40.013Z,57.94
2019-06-08T21:58:10.754Z,58.81
2019-06-08T22:00:43.637Z,59.14
2019-06-08T22:03:14.523Z,59.55
2019-06-08T22:05:47.294Z,59.81
2019-06-08T22:08:17.993Z,59.02
2019-06-08T22:10:51.052Z,59.67
2019-06-08T22:13:21.441Z,60.17
2019-06-08T22:15:53.218Z,60.35
2019-06-08T22:18:23.986Z,60.62
2019-06-08T22:20:55.973Z,60.45
2019-06-08T22:23:27.436Z,60.54
2019-06-08T22:25:59.827Z,60.91
2019-06-08T22:28:30.879Z,60.89
2019-06-08T22:31:01.859Z,60.80
2019-06-08T22:33:32.727Z,61.21
2019-06-08T22:36:03.492Z,61.84
2019-06-08T22:38:37.178Z,62.41
2019-06-08T22:41:08.031Z,62.95
2019-06-08T22:43:39.032Z,62.20
2019-06-08T22:46:09.802Z,62.33
2019-06-08T22:48:40.590Z,62.35
2019-06-08T22:51:11.363Z,62.60
2019-06-08T22:53:42.139Z,63.10
2019-06-08T22:56:12.916Z,62.78
2019-06-08T22:58:43.688Z,62.67
2019-06-08T23:01:14.474Z,62.69
2019-06-08T23:03:47.437Z,63.89
2019-06-08T23:06:17.941Z,63.08
2019-06-08T23:08:48.702Z,63.12
2019-06-08T23:11:19.463Z,62.89
2019-06-08T23:13:50.561Z,63.05
2019-06-08T23:16:21.325Z,63.10
2019-06-08T23:18:52.096Z,63.59
2019-06-08T23:21:22.864Z,63.72
2019-06-08T23:23:53.643Z,63.66
2019-06-08T23:26:24.413Z,63.40
2019-06-08T23:28:56.064Z,63.75
2019-06-08T23:31:29.052Z,62.77
2019-06-08T23:34:03.162Z,60.87
2019-06-08T23:36:50.385Z,61.65
2019-06-08T23:39:07.260Z,60.93
2019-06-08T23:41:38.194Z,62.38
2019-06-08T23:44:08.959Z,62.32
2019-06-08T23:46:39.728Z,61.98
2019-06-08T23:49:10.504Z,62.51
2019-06-08T23:51:41.268Z,64.07
2019-06-08T23:54:12.535Z,63.85
2019-06-08T23:56:43.417Z,63.57
2019-06-08T23:59:14.198Z,63.82
